Time;durP1;ratioP1;P1;durP2;ratioP2;P2;SDS_P1;SDS_P2;PMS_P1;PMS_P2;Temp;Humidity;BMP_temperature;BMP_pressure;BME280_temperature;BME280_humidity;BME280_pressure;Samples;Min_cycle;Max_cycle;Signal;HPM_P1;HPM_P2
2022/04/26 03:37:11;;;;;;;9.20;6.60;;;9.80;99.90;;;;;;5056407;28;20776;-64
2022/04/26 03:39:37;;;;;;;9.90;5.80;;;9.60;99.90;;;;;;5056298;28;20052;-64
2022/04/26 03:42:03;;;;;;;9.45;5.97;;;9.60;99.90;;;;;;5056188;28;20037;-64
2022/04/26 03:44:29;;;;;;;7.80;5.30;;;9.70;99.90;;;;;;5055994;28;20049;-64
2022/04/26 03:46:55;;;;;;;7.80;5.63;;;9.70;99.90;;;;;;5056141;28;20045;-64
2022/04/26 03:49:22;;;;;;;11.25;5.63;;;9.70;99.90;;;;;;5055889;28;20485;-65
2022/04/26 03:51:48;;;;;;;8.30;5.18;;;9.70;99.90;;;;;;5055945;28;20041;-64
2022/04/26 03:54:14;;;;;;;10.05;5.50;;;9.60;99.90;;;;;;5037714;28;20416;-64
2022/04/26 03:56:40;;;;;;;7.68;4.93;;;9.60;99.90;;;;;;5055416;28;20040;-64
2022/04/26 03:59:05;;;;;;;9.18;5.40;;;9.60;99.90;;;;;;5055337;28;20047;-65
2022/04/26 04:01:32;;;;;;;10.57;6.10;;;9.60;99.90;;;;;;5055342;28;20043;-64
2022/04/26 04:03:57;;;;;;;8.80;5.80;;;9.60;99.90;;;;;;5067773;28;20048;-64
2022/04/26 04:06:23;;;;;;;7.43;5.40;;;9.60;99.90;;;;;;5075496;28;20409;-64
2022/04/26 04:08:49;;;;;;;6.97;5.60;;;9.60;99.90;;;;;;5075395;28;20419;-64
2022/04/26 04:11:14;;;;;;;6.00;5.20;;;9.70;99.90;;;;;;5075291;28;20576;-64
2022/04/26 04:13:40;;;;;;;7.95;5.55;;;9.70;99.90;;;;;;5075239;28;20083;-64
2022/04/26 04:16:06;;;;;;;10.02;5.10;;;9.80;99.90;;;;;;5075184;28;20051;-64
2022/04/26 04:21:16;;;;;;;6.68;5.22;;;9.90;99.90;;;;;;5062476;28;20040;-64
2022/04/26 04:23:41;;;;;;;8.13;5.88;;;9.90;99.90;;;;;;5074275;28;20056;-65
2022/04/26 04:26:07;;;;;;;11.38;5.85;;;10.00;99.90;;;;;;5075254;28;20124;-64
2022/04/26 04:28:34;;;;;;;7.63;5.28;;;10.00;99.90;;;;;;5072853;28;20407;-65
2022/04/26 04:31:01;;;;;;;8.23;5.72;;;9.90;99.90;;;;;;5054811;28;20048;-65
2022/04/26 04:33:27;;;;;;;9.60;5.95;;;9.90;99.90;;;;;;5055241;28;20040;-64
2022/04/26 04:35:53;;;;;;;9.52;6.47;;;9.70;99.90;;;;;;5054930;28;20037;-64
2022/04/26 04:38:19;;;;;;;11.40;6.50;;;9.70;99.90;;;;;;5054760;28;20040;-64
2022/04/26 04:40:45;;;;;;;7.07;5.53;;;9.70;99.90;;;;;;5054830;28;20041;-64
2022/04/26 04:43:11;;;;;;;11.65;6.18;;;9.70;99.90;;;;;;5054674;28;20064;-65
2022/04/26 04:45:38;;;;;;;8.52;5.28;;;9.80;99.90;;;;;;5054639;28;20040;-64
2022/04/26 04:48:05;;;;;;;7.65;5.03;;;9.80;99.90;;;;;;5054763;28;20033;-65
2022/04/26 04:50:32;;;;;;;8.45;5.53;;;9.90;99.90;;;;;;5054746;28;20037;-65
2022/04/26 04:52:58;;;;;;;9.13;5.97;;;9.90;99.90;;;;;;5054451;28;20538;-64
2022/04/26 04:55:24;;;;;;;7.30;5.95;;;9.90;99.90;;;;;;5054481;28;20041;-65
2022/04/26 04:57:50;;;;;;;7.28;5.32;;;9.80;99.90;;;;;;5054620;28;20434;-64
2022/04/26 05:00:16;;;;;;;9.52;6.15;;;9.70;99.90;;;;;;5054812;28;20033;-65
2022/04/26 05:02:42;;;;;;;8.55;5.60;;;9.50;99.90;;;;;;5054339;28;20143;-65
2022/04/26 05:05:08;;;;;;;9.18;5.25;;;9.50;99.90;;;;;;5054394;28;20051;-65
2022/04/26 05:07:33;;;;;;;9.85;6.32;;;9.40;99.90;;;;;;5054181;28;20041;-66
2022/04/26 05:09:59;;;;;;;8.55;6.60;;;9.50;99.90;;;;;;5054226;28;20043;-65
2022/04/26 05:12:25;;;;;;;8.63;5.50;;;9.60;99.90;;;;;;5054211;28;20407;-65
2022/04/26 05:14:50;;;;;;;6.53;5.63;;;9.70;99.90;;;;;;5054118;28;20563;-65
2022/04/26 05:17:16;;;;;;;7.78;5.50;;;9.70;99.90;;;;;;5054224;28;20086;-65
2022/04/26 05:19:42;;;;;;;7.28;5.15;;;9.70;99.90;;;;;;5054506;28;20037;-65
2022/04/26 05:22:09;;;;;;;7.85;5.75;;;9.60;99.90;;;;;;5054043;28;20533;-65
2022/04/26 05:24:59;;;;;;;10.02;6.18;;;9.60;99.90;;;;;;5053886;28;20055;-66
2022/04/26 05:27:30;;;;;;;8.85;5.78;;;9.60;99.90;;;;;;5053885;28;20045;-65
2022/04/26 05:29:56;;;;;;;14.65;5.47;;;9.80;99.90;;;;;;5053867;28;20110;-65
2022/04/26 05:32:24;;;;;;;8.85;5.43;;;9.80;99.90;;;;;;5050920;28;20491;-65
2022/04/26 05:34:58;;;;;;;9.18;6.07;;;9.70;99.90;;;;;;5051945;28;20036;-64
2022/04/26 05:37:24;;;;;;;8.90;6.28;;;9.80;99.90;;;;;;5052510;28;20094;-65
2022/04/26 05:39:50;;;;;;;9.48;6.72;;;9.90;99.90;;;;;;5053474;28;20040;-65
2022/04/26 05:42:16;;;;;;;10.25;6.35;;;10.00;99.90;;;;;;5053207;28;20033;-65
2022/04/26 05:44:42;;;;;;;13.20;6.97;;;10.10;99.90;;;;;;5053419;28;20057;-65
2022/04/26 05:47:09;;;;;;;11.48;6.43;;;10.10;99.90;;;;;;5053484;28;20047;-66
2022/04/26 05:49:35;;;;;;;11.25;6.35;;;10.10;99.90;;;;;;5053569;28;20135;-65
2022/04/26 05:52:02;;;;;;;8.13;6.00;;;10.20;99.90;;;;;;5053662;28;20032;-65
2022/04/26 05:54:29;;;;;;;9.55;6.88;;;10.20;99.90;;;;;;5053547;28;20041;-65
2022/04/26 05:56:55;;;;;;;8.43;6.05;;;10.20;99.90;;;;;;5053352;28;20044;-65
2022/04/26 05:59:22;;;;;;;8.40;6.07;;;10.20;99.90;;;;;;5053322;28;20183;-65
2022/04/26 06:01:48;;;;;;;7.80;5.82;;;10.20;99.90;;;;;;5053357;28;20033;-65
2022/04/26 06:04:14;;;;;;;7.65;6.10;;;10.20;99.90;;;;;;5053262;28;20045;-66
2022/04/26 06:06:40;;;;;;;13.50;7.05;;;10.30;99.90;;;;;;5053166;28;20036;-65
2022/04/26 06:09:06;;;;;;;10.75;6.57;;;10.30;99.90;;;;;;5052943;28;20060;-66
2022/04/26 06:11:32;;;;;;;9.27;5.90;;;10.40;99.90;;;;;;5053208;28;20099;-64
2022/04/26 06:13:58;;;;;;;8.60;6.00;;;10.40;99.90;;;;;;5052929;28;20073;-64
2022/04/26 06:16:24;;;;;;;9.27;6.88;;;10.50;99.90;;;;;;5052980;28;20099;-65
2022/04/26 06:18:50;;;;;;;8.40;6.50;;;10.40;99.90;;;;;;5053215;28;20036;-65
2022/04/26 06:21:16;;;;;;;12.80;7.00;;;10.40;99.90;;;;;;5053203;28;20094;-65
2022/04/26 06:23:42;;;;;;;8.43;6.63;;;10.40;99.90;;;;;;5052975;28;20127;-65
2022/04/26 06:26:08;;;;;;;8.88;6.30;;;10.40;99.90;;;;;;5053017;28;20044;-65
2022/04/26 06:28:34;;;;;;;8.95;6.28;;;10.40;99.90;;;;;;5053083;28;20115;-65
2022/04/26 06:31:00;;;;;;;8.55;6.20;;;10.40;99.90;;;;;;5052903;28;20423;-65
2022/04/26 06:33:26;;;;;;;9.88;6.63;;;10.50;99.90;;;;;;5052710;28;20044;-65
2022/04/26 06:35:52;;;;;;;8.38;6.43;;;10.50;99.90;;;;;;5052711;28;20171;-65
2022/04/26 06:38:18;;;;;;;11.05;6.65;;;10.40;99.90;;;;;;5052865;28;20120;-64
2022/04/26 06:40:46;;;;;;;8.73;6.63;;;10.50;99.90;;;;;;5053027;28;20043;-65
2022/04/26 06:43:12;;;;;;;10.30;7.43;;;10.60;99.90;;;;;;5052782;28;20048;-65
2022/04/26 06:45:39;;;;;;;11.07;6.63;;;10.70;99.90;;;;;;5052788;28;20057;-65
2022/04/26 06:48:08;;;;;;;9.75;6.78;;;10.70;99.90;;;;;;5052556;28;20032;-65
2022/04/26 06:50:34;;;;;;;12.48;7.45;;;10.80;99.90;;;;;;5066485;28;20071;-65
2022/04/26 06:53:00;;;;;;;12.15;7.93;;;10.90;99.90;;;;;;5075809;28;20507;-65
2022/04/26 06:55:26;;;;;;;11.90;8.65;;;10.90;99.90;;;;;;5076420;28;20036;-65
2022/04/26 06:57:51;;;;;;;13.10;9.02;;;11.00;99.90;;;;;;5076565;28;20110;-65
2022/04/26 07:00:17;;;;;;;11.93;8.15;;;11.10;99.90;;;;;;5076805;28;20633;-65
2022/04/26 07:02:43;;;;;;;16.33;9.82;;;11.50;99.90;;;;;;5076685;28;20036;-66
2022/04/26 07:05:11;;;;;;;12.23;8.63;;;11.80;99.90;;;;;;5076764;28;20127;-65
2022/04/26 07:07:38;;;;;;;10.35;7.85;;;11.80;99.90;;;;;;5076890;28;20106;-65
2022/04/26 07:10:05;;;;;;;13.10;8.70;;;11.70;99.90;;;;;;5076605;28;20043;-65
2022/04/26 07:12:31;;;;;;;15.80;9.90;;;11.70;99.90;;;;;;5076361;28;20040;-65
2022/04/26 07:14:57;;;;;;;16.23;10.25;;;11.60;99.90;;;;;;5075337;28;20053;-66
2022/04/26 07:17:24;;;;;;;15.75;10.23;;;11.60;99.90;;;;;;5074285;28;20405;-65
2022/04/26 07:19:50;;;;;;;14.93;10.13;;;11.70;99.90;;;;;;5075721;28;20055;-65
2022/04/26 07:22:15;;;;;;;15.52;11.07;;;11.80;99.90;;;;;;5076318;28;20037;-66
2022/04/26 07:24:41;;;;;;;13.23;9.68;;;12.00;99.90;;;;;;5076097;28;20052;-65
2022/04/26 07:27:07;;;;;;;14.52;9.52;;;12.10;99.90;;;;;;5075967;28;20036;-65
2022/04/26 07:29:33;;;;;;;14.77;9.90;;;12.40;99.90;;;;;;5075383;28;20052;-66
2022/04/26 07:31:59;;;;;;;12.85;9.50;;;12.30;99.90;;;;;;5075852;28;20042;-65
2022/04/26 07:34:25;;;;;;;14.75;9.43;;;12.60;99.90;;;;;;5075879;28;20564;-66
2022/04/26 07:37:02;;;;;;;12.27;8.07;;;12.70;99.90;;;;;;5075901;28;20036;-65
2022/04/26 07:39:35;;;;;;;11.88;9.13;;;12.90;99.90;;;;;;5075929;28;20829;-65
2022/04/26 07:42:04;;;;;;;12.70;7.68;;;12.80;99.90;;;;;;5075972;28;20127;-66
2022/04/26 07:44:31;;;;;;;14.73;9.25;;;12.90;99.90;;;;;;5075749;28;20040;-66
2022/04/26 07:46:58;;;;;;;11.75;8.45;;;13.50;99.90;;;;;;5075921;28;20082;-67
2022/04/26 07:49:26;;;;;;;12.20;7.93;;;12.90;99.90;;;;;;5075921;28;20044;-67
2022/04/26 07:51:52;;;;;;;10.27;7.88;;;12.90;99.90;;;;;;5075871;28;20044;-66
2022/04/26 07:54:18;;;;;;;14.60;8.98;;;12.90;99.90;;;;;;5075134;28;20432;-67
2022/04/26 07:56:45;;;;;;;10.13;8.00;;;13.30;99.90;;;;;;5075726;28;20040;-67
2022/04/26 07:59:14;;;;;;;8.98;7.13;;;13.70;99.90;;;;;;5075817;28;20399;-67
2022/04/26 08:01:40;;;;;;;12.50;7.15;;;13.20;99.90;;;;;;5074654;28;20059;-65
2022/04/26 08:04:06;;;;;;;11.63;7.60;;;13.30;99.90;;;;;;5071543;28;20044;-66
2022/04/26 08:06:32;;;;;;;11.88;7.70;;;13.00;99.90;;;;;;5075283;28;20065;-66
2022/04/26 08:08:58;;;;;;;12.98;7.82;;;13.20;99.90;;;;;;5073870;28;20435;-66
2022/04/26 08:11:28;;;;;;;13.18;9.52;;;13.40;99.90;;;;;;5074990;28;20420;-66
2022/04/26 08:13:55;;;;;;;11.90;7.83;;;13.70;99.90;;;;;;5074731;28;20036;-66
2022/04/26 08:16:21;;;;;;;11.38;7.95;;;14.30;99.90;;;;;;5073989;28;20441;-66
2022/04/26 08:18:46;;;;;;;12.35;8.48;;;14.60;99.90;;;;;;5075505;28;20037;-67
2022/04/26 08:21:16;;;;;;;11.57;7.47;;;14.90;99.90;;;;;;5074596;28;20055;-67
2022/04/26 08:29:14;;;;;;;9.98;7.63;;;14.80;99.90;;;;;;5073763;28;20482;-66
2022/04/26 08:31:40;;;;;;;9.43;7.22;;;15.40;99.90;;;;;;5074566;28;20044;-66
2022/04/26 08:34:06;;;;;;;9.45;7.45;;;15.20;99.90;;;;;;5074710;28;20511;-67
2022/04/26 08:36:32;;;;;;;9.40;6.88;;;15.60;99.90;;;;;;5074885;28;20119;-66
2022/04/26 08:38:58;;;;;;;13.00;7.80;;;14.70;99.90;;;;;;5074990;28;20048;-65
2022/04/26 08:41:24;;;;;;;10.18;6.93;;;15.20;99.90;;;;;;5074917;28;20028;-67
2022/04/26 08:43:50;;;;;;;10.07;6.70;;;14.90;99.90;;;;;;5075075;28;20059;-66
2022/04/26 08:46:16;;;;;;;9.68;7.25;;;14.80;99.90;;;;;;5074302;28;20203;-66
2022/04/26 08:51:29;;;;;;;11.60;7.70;;;15.70;99.90;;;;;;5074736;28;20089;-67
2022/04/26 08:53:55;;;;;;;8.52;6.45;;;15.60;99.90;;;;;;5074548;28;20093;-67
2022/04/26 08:56:20;;;;;;;10.73;6.22;;;15.50;99.90;;;;;;5074584;28;20123;-67
2022/04/26 08:58:47;;;;;;;9.73;7.55;;;15.10;99.90;;;;;;5074419;28;20040;-67
2022/04/26 09:01:22;;;;;;;9.25;7.03;;;15.20;99.90;;;;;;5074536;28;20495;-66
2022/04/26 09:04:02;;;;;;;10.75;7.05;;;15.20;99.90;;;;;;5074285;28;20052;-67
2022/04/26 09:06:39;;;;;;;10.05;7.10;;;15.40;99.90;;;;;;5074267;28;20032;-67
2022/04/26 09:09:11;;;;;;;9.50;6.35;;;15.10;99.90;;;;;;5074153;28;20060;-67
2022/04/26 09:11:38;;;;;;;10.05;7.53;;;14.60;99.90;;;;;;5058415;28;20120;-67
2022/04/26 09:14:08;;;;;;;9.95;6.93;;;14.60;99.90;;;;;;5054288;28;20041;-67
2022/04/26 09:16:34;;;;;;;11.13;7.28;;;15.00;99.90;;;;;;5053398;28;20044;-67
2022/04/26 09:19:07;;;;;;;10.88;6.32;;;15.00;99.90;;;;;;5065777;28;20455;-66
2022/04/26 09:21:36;;;;;;;11.88;6.97;;;15.70;99.90;;;;;;5072648;28;20036;-67
2022/04/26 09:24:06;;;;;;;8.25;6.72;;;15.80;99.90;;;;;;5073787;28;20584;-67
2022/04/26 09:26:34;;;;;;;13.18;7.38;;;15.90;99.90;;;;;;5074101;28;20381;-66
2022/04/26 09:29:00;;;;;;;11.43;7.75;;;15.10;99.90;;;;;;5073831;28;20043;-67
2022/04/26 09:31:31;;;;;;;12.90;7.30;;;15.10;99.90;;;;;;5074011;28;20032;-67
2022/04/26 09:34:04;;;;;;;12.38;7.22;;;15.40;99.90;;;;;;5073757;28;20052;-66
2022/04/26 09:36:35;;;;;;;10.20;6.43;;;16.10;99.90;;;;;;5073929;28;20104;-66
2022/04/26 09:39:04;;;;;;;10.25;6.95;;;16.50;99.90;;;;;;5073598;28;20511;-66
2022/04/26 09:41:30;;;;;;;10.07;7.25;;;17.00;99.90;;;;;;5073608;28;20039;-67
2022/04/26 09:44:08;;;;;;;11.32;7.00;;;16.80;99.90;;;;;;5073423;28;20053;-67
2022/04/26 09:46:42;;;;;;;10.95;7.50;;;16.10;99.90;;;;;;5073637;28;20373;-66
2022/04/26 09:49:10;;;;;;;9.05;7.10;;;;;;;;;;5073726;28;20048;-66
2022/04/26 09:51:38;;;;;;;13.20;7.28;;;14.60;99.90;;;;;;5073803;28;20040;-66
2022/04/26 09:54:05;;;;;;;14.13;8.98;;;14.60;99.90;;;;;;5073589;28;20041;-66
2022/04/26 09:56:31;;;;;;;10.38;7.97;;;14.50;99.90;;;;;;5073528;28;20040;-66
2022/04/26 09:59:00;;;;;;;10.07;7.38;;;15.20;99.90;;;;;;5073686;28;20044;-66
2022/04/26 10:01:39;;;;;;;12.73;7.30;;;15.70;99.90;;;;;;5073462;28;20074;-67
2022/04/26 10:04:08;;;;;;;12.30;7.65;;;15.40;99.90;;;;;;5073365;28;20048;-66
2022/04/26 10:06:35;;;;;;;13.65;7.20;;;15.30;99.90;;;;;;5073389;28;20039;-67
2022/04/26 10:09:03;;;;;;;10.88;8.27;;;15.30;99.90;;;;;;5073033;28;20032;-66
2022/04/26 10:11:29;;;;;;;13.43;8.85;;;15.50;99.90;;;;;;5073110;28;20094;-66
2022/04/26 10:13:56;;;;;;;10.75;7.45;;;15.50;99.90;;;;;;5072930;28;20043;-66
2022/04/26 10:16:23;;;;;;;12.80;7.88;;;15.60;99.90;;;;;;5073133;28;20376;-67
2022/04/26 10:18:50;;;;;;;12.32;6.78;;;16.10;99.90;;;;;;5073319;28;20198;-67
2022/04/26 10:21:21;;;;;;;10.85;7.72;;;15.90;99.90;;;;;;5073025;28;20580;-67
2022/04/26 10:23:56;;;;;;;10.15;7.07;;;15.20;99.90;;;;;;5072898;28;20051;-66
2022/04/26 10:26:25;;;;;;;9.40;7.38;;;15.10;99.90;;;;;;5072775;28;20044;-66
2022/04/26 10:29:00;;;;;;;10.68;8.48;;;15.30;99.90;;;;;;5073143;28;20036;-66
2022/04/26 10:31:38;;;;;;;16.42;8.52;;;14.60;99.90;;;;;;5073111;28;20115;-67
2022/04/26 10:34:31;;;;;;;12.27;8.07;;;14.50;99.90;;;;;;5073154;28;20561;-66
2022/04/26 10:37:09;;;;;;;16.33;8.38;;;14.00;99.90;;;;;;5073137;28;20538;-66
2022/04/26 10:39:45;;;;;;;19.55;9.80;;;14.10;99.90;;;;;;5062680;28;20045;-66
2022/04/26 10:42:16;;;;;;;13.80;8.23;;;14.40;99.90;;;;;;5052132;28;20041;-66
2022/04/26 10:44:43;;;;;;;12.43;8.77;;;14.40;99.90;;;;;;5052367;28;20051;-66
2022/04/26 10:47:09;;;;;;;14.77;8.57;;;14.30;99.90;;;;;;5052796;28;20118;-66
2022/04/26 10:49:38;;;;;;;12.90;8.00;;;14.90;99.90;;;;;;5052875;28;20488;-66
2022/04/26 10:52:13;;;;;;;8.38;6.78;;;15.40;99.90;;;;;;5052913;28;20041;-67
2022/04/26 10:54:45;;;;;;;10.60;7.22;;;15.60;99.90;;;;;;5053102;28;20554;-66
2022/04/26 10:57:26;;;;;;;12.88;8.10;;;15.70;99.90;;;;;;5052822;28;20079;-66
2022/04/26 10:59:56;;;;;;;16.48;8.90;;;15.60;99.90;;;;;;5070344;28;20051;-66
2022/04/26 11:02:25;;;;;;;9.23;7.53;;;15.40;99.90;;;;;;5072962;28;20032;-66
2022/04/26 11:05:02;;;;;;;15.48;9.15;;;15.90;99.90;;;;;;5072154;28;20082;-66
2022/04/26 11:07:29;;;;;;;12.05;8.38;;;15.80;99.90;;;;;;5072865;28;20028;-66
2022/04/26 11:09:57;;;;;;;10.75;8.55;;;15.50;99.90;;;;;;5072435;28;20037;-66
2022/04/26 11:12:24;;;;;;;13.10;9.02;;;15.10;99.90;;;;;;5072543;28;20040;-66
2022/04/26 11:14:52;;;;;;;9.70;7.93;;;14.50;99.90;;;;;;5072388;28;20152;-66
2022/04/26 11:17:19;;;;;;;12.55;7.97;;;14.60;99.90;;;;;;5071981;28;20543;-66
2022/04/26 11:19:55;;;;;;;8.93;7.20;;;14.40;99.90;;;;;;5067767;28;20784;-67
2022/04/26 11:22:23;;;;;;;11.88;7.75;;;14.50;99.90;;;;;;5072463;28;20044;-66
2022/04/26 11:30:24;;;;;;;10.48;7.93;;;14.00;99.90;;;;;;5072338;28;20074;-66
2022/04/26 11:32:50;;;;;;;11.82;7.88;;;14.10;99.90;;;;;;5071532;28;20044;-66
2022/04/26 11:35:19;;;;;;;10.60;7.93;;;14.60;99.90;;;;;;5070102;28;20036;-67
2022/04/26 11:37:53;;;;;;;11.82;7.68;;;14.70;99.90;;;;;;5070481;28;20396;-67
2022/04/26 11:40:30;;;;;;;11.80;7.13;;;15.00;99.90;;;;;;5074145;28;20028;-66
2022/04/26 11:42:58;;;;;;;12.65;7.70;;;15.40;99.90;;;;;;5074003;28;20599;-67
2022/04/26 11:45:30;;;;;;;10.25;7.47;;;15.80;99.90;;;;;;5073410;28;20619;-66
2022/04/26 11:47:57;;;;;;;9.15;7.32;;;16.00;99.90;;;;;;5075047;28;20058;-67
2022/04/26 11:50:28;;;;;;;13.82;6.70;;;16.30;99.90;;;;;;5073646;28;20036;-66
2022/04/26 11:53:01;;;;;;;14.23;7.38;;;15.90;99.90;;;;;;5073585;28;20074;-67
2022/04/26 11:55:28;;;;;;;9.70;6.20;;;15.70;99.90;;;;;;5073540;28;20068;-67
2022/04/26 11:58:13;;;;;;;11.48;7.72;;;15.20;99.90;;;;;;5075286;28;20581;-66
2022/04/26 12:01:12;;;;;;;11.52;7.28;;;15.10;99.90;;;;;;5074533;28;20419;-67
2022/04/26 12:03:49;;;;;;;12.23;7.80;;;15.10;99.90;;;;;;5075090;28;20044;-67
2022/04/26 12:06:36;;;;;;;13.45;7.55;;;14.60;99.90;;;;;;5075440;28;20036;-67
2022/04/26 12:09:04;;;;;;;9.82;7.13;;;14.40;99.90;;;;;;5075333;28;20213;-66
2022/04/26 12:11:37;;;;;;;8.43;6.65;;;14.60;99.90;;;;;;5075566;28;20066;-66
2022/04/26 12:14:15;;;;;;;9.73;7.13;;;14.70;99.90;;;;;;5075486;28;20040;-67
2022/04/26 12:16:43;;;;;;;10.23;6.63;;;15.20;99.90;;;;;;5075357;28;20044;-67
2022/04/26 12:19:09;;;;;;;7.75;6.50;;;15.10;99.90;;;;;;5075445;28;20495;-67
2022/04/26 12:21:54;;;;;;;9.82;6.30;;;15.50;99.90;;;;;;5075535;28;20443;-67
2022/04/26 12:24:23;;;;;;;11.48;7.00;;;15.40;99.90;;;;;;5075590;28;20135;-66
2022/04/26 12:27:03;;;;;;;10.68;7.88;;;16.10;99.90;;;;;;5064713;28;20052;-67
2022/04/26 12:29:35;;;;;;;11.77;7.22;;;16.20;99.90;;;;;;5072405;28;20053;-67
2022/04/26 12:32:06;;;;;;;10.38;7.35;;;15.90;99.90;;;;;;5075151;28;20039;-66
2022/04/26 12:34:32;;;;;;;9.95;7.15;;;16.10;99.90;;;;;;5074047;28;20572;-66
2022/04/26 12:37:00;;;;;;;13.50;7.90;;;16.30;99.90;;;;;;5074843;28;20047;-67
2022/04/26 12:39:28;;;;;;;11.68;7.63;;;16.50;99.90;;;;;;5073199;28;20127;-67
2022/04/26 12:41:56;;;;;;;11.13;7.18;;;16.50;99.90;;;;;;5072722;28;20041;-67
2022/04/26 12:44:23;;;;;;;10.90;7.63;;;16.40;99.90;;;;;;5072574;28;20060;-67
2022/04/26 12:52:57;;;;;;;7.57;6.32;;;16.30;99.90;;;;;;5071233;28;20086;-69
2022/04/26 12:55:39;;;;;;;15.57;7.32;;;16.40;99.90;;;;;;5072262;28;20036;-69
2022/04/26 12:58:13;;;;;;;9.70;6.50;;;16.00;99.90;;;;;;5072397;28;20509;-68
2022/04/26 13:00:52;;;;;;;7.38;6.07;;;15.80;99.90;;;;;;5072527;28;20044;-69
2022/04/26 13:03:21;;;;;;;11.38;7.03;;;15.70;99.90;;;;;;5073938;28;20587;-68
2022/04/26 13:05:52;;;;;;;11.77;6.30;;;15.40;99.90;;;;;;5073162;28;20452;-68
2022/04/26 13:08:19;;;;;;;13.13;6.57;;;15.50;99.90;;;;;;5071998;28;20488;-68
2022/04/26 13:10:47;;;;;;;13.32;6.97;;;15.50;99.90;;;;;;5072359;28;20051;-68
2022/04/26 13:13:14;;;;;;;8.48;6.18;;;15.50;99.90;;;;;;5072187;28;20491;-68
2022/04/26 13:15:41;;;;;;;9.27;6.05;;;15.30;99.90;;;;;;5072439;28;20040;-69
2022/04/26 13:18:08;;;;;;;8.95;5.82;;;15.10;99.90;;;;;;5071685;28;20039;-69
2022/04/26 13:20:34;;;;;;;9.50;6.15;;;15.10;99.90;;;;;;5063041;28;20059;-68
2022/04/26 13:23:01;;;;;;;10.40;7.38;;;15.30;99.90;;;;;;5051599;28;20037;-68
2022/04/26 13:25:27;;;;;;;8.38;5.90;;;15.80;99.90;;;;;;5051865;28;20049;-68
2022/04/26 13:27:53;;;;;;;10.88;6.43;;;15.90;99.90;;;;;;5051634;28;20039;-68
2022/04/26 13:30:18;;;;;;;7.68;6.15;;;16.20;99.90;;;;;;5051387;28;20049;-68
2022/04/26 13:32:44;;;;;;;8.95;6.60;;;16.50;99.90;;;;;;5054167;28;20068;-69
2022/04/26 13:35:11;;;;;;;9.30;6.05;;;16.40;99.90;;;;;;5051662;28;20037;-69
2022/04/26 13:37:38;;;;;;;10.32;7.13;;;16.20;99.90;;;;;;5052798;28;20071;-69
2022/04/26 13:40:05;;;;;;;7.35;5.47;;;16.30;99.90;;;;;;5053487;28;20314;-69
2022/04/26 13:42:31;;;;;;;9.65;6.05;;;16.20;99.90;;;;;;5033575;28;20044;-68
2022/04/26 13:44:58;;;;;;;8.52;6.28;;;15.80;99.90;;;;;;5051336;28;20122;-68
2022/04/26 13:47:25;;;;;;;8.18;5.80;;;15.90;99.90;;;;;;5051383;28;20040;-68
2022/04/26 13:49:52;;;;;;;8.55;5.30;;;16.20;99.90;;;;;;5052653;28;20110;-69
2022/04/26 13:52:20;;;;;;;8.38;5.15;;;16.40;99.90;;;;;;5053313;28;20408;-68
2022/04/26 13:54:46;;;;;;;8.77;5.85;;;16.60;99.90;;;;;;5051328;28;20033;-68
2022/04/26 13:57:12;;;;;;;9.88;6.47;;;16.80;99.90;;;;;;5051291;28;20045;-68
2022/04/26 13:59:38;;;;;;;9.18;6.00;;;16.50;99.90;;;;;;5051180;28;20035;-68
2022/04/26 14:02:05;;;;;;;10.70;6.57;;;15.90;99.90;;;;;;5051368;28;20503;-68
2022/04/26 14:04:32;;;;;;;9.95;6.57;;;15.60;99.90;;;;;;5052995;28;20076;-68
2022/04/26 14:06:58;;;;;;;12.05;6.40;;;15.60;99.90;;;;;;5053075;28;20036;-68
2022/04/26 14:09:24;;;;;;;9.13;5.60;;;15.60;99.90;;;;;;5050893;28;20110;-68
2022/04/26 14:11:51;;;;;;;12.65;6.25;;;15.60;99.90;;;;;;5050745;28;20040;-68
2022/04/26 14:22:32;;;;;;;10.95;5.53;;;15.10;99.90;;;;;;5052980;28;20067;-69
2022/04/26 14:25:09;;;;;;;8.60;6.55;;;15.10;99.90;;;;;;5051629;28;20053;-68
2022/04/26 14:27:36;;;;;;;8.65;5.43;;;14.90;99.90;;;;;;5052936;28;20044;-69
2022/04/26 14:30:05;;;;;;;7.45;5.80;;;15.40;99.90;;;;;;5052952;28;20040;-69
2022/04/26 14:32:31;;;;;;;11.15;6.45;;;15.80;99.90;;;;;;5053022;28;20037;-69
2022/04/26 14:34:56;;;;;;;8.25;5.22;;;15.90;99.90;;;;;;5053076;28;20052;-68
2022/04/26 14:37:25;;;;;;;8.07;5.40;;;16.00;99.90;;;;;;5052951;28;20044;-68
2022/04/26 14:39:51;;;;;;;8.75;5.78;;;15.70;99.90;;;;;;5052684;28;20045;-68
2022/04/26 14:42:20;;;;;;;7.63;5.38;;;15.30;99.90;;;;;;5052690;28;20143;-68
2022/04/26 14:44:46;;;;;;;12.25;5.47;;;15.30;99.90;;;;;;5052625;28;20053;-68
2022/04/26 14:47:14;;;;;;;7.38;4.45;;;16.00;99.90;;;;;;5052806;28;20043;-68
2022/04/26 14:49:40;;;;;;;8.27;5.65;;;16.20;99.90;;;;;;5052944;28;20075;-68
2022/04/26 14:52:07;;;;;;;7.35;4.95;;;16.20;99.90;;;;;;5052889;28;20045;-69
2022/04/26 14:54:34;;;;;;;15.68;5.35;;;15.90;99.90;;;;;;5052589;28;20581;-68
2022/04/26 14:56:59;;;;;;;9.75;5.70;;;16.00;99.90;;;;;;5052527;28;20037;-69
2022/04/26 14:59:25;;;;;;;7.78;5.35;;;15.80;99.90;;;;;;5052503;28;20063;-69
2022/04/26 15:01:52;;;;;;;8.23;5.20;;;15.90;99.90;;;;;;5052503;28;20037;-68
2022/04/26 15:04:23;;;;;;;9.18;5.45;;;16.00;99.90;;;;;;5034760;28;20455;-69
2022/04/26 15:06:50;;;;;;;7.88;5.82;;;16.10;99.90;;;;;;5052965;28;20116;-68
2022/04/26 15:17:30;;;;;;;6.82;5.20;;;16.10;99.40;;;;;;5057438;28;20075;-69
2022/04/26 15:19:56;;;;;;;7.55;5.18;;;16.10;99.90;;;;;;5074691;28;20044;-68
2022/04/26 15:22:23;;;;;;;6.07;4.85;;;16.00;99.90;;;;;;5076132;28;20044;-68
2022/04/26 15:24:50;;;;;;;7.85;4.93;;;16.10;99.90;;;;;;5076141;28;20067;-68
2022/04/26 15:27:17;;;;;;;10.57;4.70;;;15.90;99.90;;;;;;5076223;28;20032;-69
2022/04/26 15:29:44;;;;;;;6.85;5.05;;;16.00;99.90;;;;;;5065308;28;20045;-68
2022/04/26 15:32:10;;;;;;;7.07;5.28;;;15.90;99.90;;;;;;5056276;28;20072;-68
2022/04/26 15:34:36;;;;;;;7.75;5.32;;;15.90;99.90;;;;;;5056234;28;20522;-68
2022/04/26 15:37:02;;;;;;;9.07;5.45;;;16.00;99.90;;;;;;5056258;28;20037;-68
2022/04/26 15:39:28;;;;;;;9.07;5.47;;;15.80;99.90;;;;;;5055968;28;20072;-69
2022/04/26 15:41:55;;;;;;;6.82;4.70;;;15.80;99.90;;;;;;5055797;28;20592;-68
2022/04/26 15:44:21;;;;;;;6.28;4.70;;;15.60;99.90;;;;;;5055893;28;20055;-68
2022/04/26 15:46:48;;;;;;;6.53;4.55;;;16.00;99.90;;;;;;5056187;28;20116;-68
2022/04/26 15:49:14;;;;;;;7.50;4.68;;;15.90;99.90;;;;;;5055893;28;20051;-68
2022/04/26 15:51:42;;;;;;;8.25;4.95;;;15.80;99.90;;;;;;5056000;28;20032;-68
2022/04/26 15:54:08;;;;;;;5.97;4.43;;;15.60;99.90;;;;;;5056281;28;20427;-69
2022/04/26 15:56:33;;;;;;;9.82;5.15;;;15.40;99.90;;;;;;5055813;28;20044;-68
2022/04/26 15:59:00;;;;;;;6.72;4.93;;;15.40;99.90;;;;;;5055831;28;20044;-68
2022/04/26 16:01:26;;;;;;;9.25;4.32;;;15.70;99.90;;;;;;5054700;28;20071;-68
2022/04/26 16:03:52;;;;;;;9.32;4.55;;;15.60;99.90;;;;;;5052597;28;20107;-68
2022/04/26 16:06:19;;;;;;;8.23;5.00;;;15.50;99.90;;;;;;5053820;28;20067;-68
2022/04/26 16:08:45;;;;;;;8.57;4.60;;;15.10;99.90;;;;;;5053925;28;20033;-69
2022/04/26 16:22:11;;;;;;;11.18;5.07;;;;;;;;;;5075354;28;20052;-70
2022/04/26 16:24:39;;;;;;;5.68;3.40;;;15.40;99.90;;;;;;5074634;28;20399;-69
2022/04/26 16:27:06;;;;;;;6.95;4.45;;;15.50;99.90;;;;;;5075241;28;20606;-69
2022/04/26 16:29:32;;;;;;;7.07;4.20;;;15.40;99.90;;;;;;5075021;28;20032;-70
2022/04/26 16:31:58;;;;;;;6.63;4.55;;;15.40;99.90;;;;;;5074903;28;20040;-69
2022/04/26 16:34:23;;;;;;;9.23;4.65;;;15.30;99.90;;;;;;5074901;28;20093;-71
2022/04/26 16:36:50;;;;;;;6.80;4.60;;;15.30;99.90;;;;;;5074717;28;20048;-71
2022/04/26 16:39:16;;;;;;;7.43;4.82;;;15.40;99.70;;;;;;5074918;28;20522;-69
2022/04/26 16:41:41;;;;;;;9.15;4.88;;;15.20;99.40;;;;;;5074737;28;20036;-70
2022/04/26 16:44:07;;;;;;;6.22;4.60;;;15.30;99.90;;;;;;5074551;28;20109;-68
2022/04/26 16:46:35;;;;;;;8.07;4.72;;;15.30;99.70;;;;;;5074688;28;20044;-71
2022/04/26 16:49:03;;;;;;;6.18;4.68;;;15.30;99.90;;;;;;5074562;28;20542;-67
2022/04/26 16:51:30;;;;;;;8.05;5.07;;;15.10;99.90;;;;;;5074745;28;20036;-69
2022/04/26 16:53:59;;;;;;;8.48;5.03;;;15.10;99.60;;;;;;5074518;28;20852;-72
2022/04/26 16:56:25;;;;;;;11.00;4.90;;;15.10;99.90;;;;;;5074597;28;20032;-71
2022/04/26 16:58:51;;;;;;;7.15;4.55;;;14.90;99.90;;;;;;5074430;28;20055;-69
2022/04/26 17:01:16;;;;;;;7.65;5.13;;;15.00;99.90;;;;;;5074410;28;20036;-69
2022/04/26 17:03:42;;;;;;;5.28;3.85;;;14.90;99.90;;;;;;5074245;28;20074;-69
2022/04/26 17:06:09;;;;;;;6.15;4.07;;;14.90;99.90;;;;;;5074380;28;20455;-69
2022/04/26 17:08:35;;;;;;;6.22;3.95;;;15.00;99.90;;;;;;5074589;28;20037;-69
2022/04/26 17:13:45;;;;;;;10.25;4.30;;;14.80;99.90;;;;;;5074226;28;20035;-69
2022/04/26 17:16:12;;;;;;;9.45;4.45;;;14.70;99.90;;;;;;5063343;28;20045;-68